createdAt,value
2023-03-22T00:00:15.498Z,101267.69
2023-03-22T00:02:43.241Z,101271.38
2023-03-22T00:05:11.001Z,101268.19
2023-03-22T00:07:58.977Z,101268.47
2023-03-22T00:10:29.003Z,101268.00
2023-03-22T00:12:57.225Z,101263.66
2023-03-22T00:15:24.656Z,101262.53
2023-03-22T00:17:53.079Z,101261.47
2023-03-22T00:20:23.721Z,101267.34
2023-03-22T00:22:51.097Z,101265.09
2023-03-22T00:25:21.294Z,101277.72
2023-03-22T00:27:48.922Z,101276.38
2023-03-22T00:30:16.562Z,101267.91
2023-03-22T00:32:45.075Z,101266.44
2023-03-22T00:35:12.984Z,101270.31
2023-03-22T00:37:40.370Z,101271.00
2023-03-22T00:40:11.250Z,101271.31
2023-03-22T00:42:40.371Z,101262.41
2023-03-22T00:45:11.320Z,101269.44
2023-03-22T00:47:39.311Z,101268.66
2023-03-22T00:50:07.853Z,101266.84
2023-03-22T00:52:35.509Z,101267.22
2023-03-22T00:55:03.290Z,101262.75
2023-03-22T00:57:31.021Z,101261.22
2023-03-22T00:59:58.535Z,101260.38
2023-03-22T01:02:29.749Z,101260.03
2023-03-22T01:04:57.926Z,101256.19
2023-03-22T01:07:28.219Z,101252.94
2023-03-22T01:09:55.615Z,101261.91
2023-03-22T01:12:23.239Z,101259.81
2023-03-22T01:14:50.808Z,101259.81
2023-03-22T01:17:19.841Z,101264.09
2023-03-22T01:19:47.260Z,101276.44
2023-03-22T01:22:14.762Z,101265.28
2023-03-22T01:24:44.240Z,101276.44
2023-03-22T01:27:11.996Z,101270.28
2023-03-22T01:29:39.342Z,101268.72
2023-03-22T01:32:06.906Z,101269.13
2023-03-22T01:34:34.602Z,101271.19
2023-03-22T01:37:02.063Z,101266.00
2023-03-22T01:39:29.732Z,101262.16
2023-03-22T01:41:57.184Z,101267.22
2023-03-22T01:44:24.587Z,101270.06
2023-03-22T01:46:52.186Z,101272.09
2023-03-22T01:49:34.146Z,101264.94
2023-03-22T01:52:06.437Z,101269.69
2023-03-22T01:54:50.288Z,101268.91
2023-03-22T01:57:18.565Z,101275.13
2023-03-22T01:59:47.539Z,101279.84
2023-03-22T02:02:22.167Z,101287.25
2023-03-22T02:04:58.234Z,101280.56
2023-03-22T02:07:28.642Z,101288.94
2023-03-22T02:10:23.396Z,101289.06
2023-03-22T02:13:14.045Z,101283.22
2023-03-22T02:16:14.573Z,101279.31
2023-03-22T02:18:57.599Z,101289.91
2023-03-22T02:22:02.398Z,101285.25
2023-03-22T02:25:05.415Z,101296.88
2023-03-22T02:27:41.706Z,101300.38
2023-03-22T02:30:33.857Z,101303.94
2023-03-22T02:33:35.945Z,101301.25
2023-03-22T02:36:19.951Z,101298.81
2023-03-22T02:38:59.635Z,101302.25
2023-03-22T02:41:33.173Z,101309.47
2023-03-22T02:44:17.688Z,101308.56
2023-03-22T02:46:52.821Z,101308.69
2023-03-22T02:49:36.414Z,101311.47
2023-03-22T02:52:17.697Z,101308.94
2023-03-22T02:55:09.878Z,101305.44
2023-03-22T02:57:54.518Z,101311.59
2023-03-22T03:00:22.493Z,101311.16
2023-03-22T03:02:55.147Z,101310.75
2023-03-22T03:05:26.229Z,101315.31
2023-03-22T03:07:59.726Z,101310.53
2023-03-22T03:10:33.418Z,101305.44
2023-03-22T03:13:01.248Z,101301.59
2023-03-22T03:15:28.956Z,101305.50
2023-03-22T03:18:19.206Z,101306.72
2023-03-22T03:21:05.078Z,101312.53
2023-03-22T03:23:54.973Z,101299.03
2023-03-22T03:26:52.815Z,101304.34
2023-03-22T03:29:24.163Z,101315.84
2023-03-22T03:32:15.958Z,101308.00
2023-03-22T03:34:49.764Z,101311.13
2023-03-22T03:37:22.897Z,101320.09
2023-03-22T03:39:59.007Z,101316.06
2023-03-22T03:42:28.591Z,101316.16
2023-03-22T03:44:56.643Z,101324.25
2023-03-22T03:47:26.082Z,101323.84
2023-03-22T03:49:53.904Z,101329.13
2023-03-22T03:52:24.636Z,101335.78
2023-03-22T03:54:52.774Z,101340.38
2023-03-22T03:57:22.309Z,101335.53
2023-03-22T03:59:50.278Z,101333.00
2023-03-22T04:02:17.721Z,101332.44
2023-03-22T04:04:45.401Z,101328.19
2023-03-22T04:07:12.911Z,101325.41
2023-03-22T04:09:40.627Z,101331.91
2023-03-22T04:12:12.864Z,101334.38
2023-03-22T04:14:41.839Z,101331.09
2023-03-22T04:17:09.906Z,101341.28
2023-03-22T04:19:38.005Z,101342.47
2023-03-22T04:22:05.957Z,101351.19
2023-03-22T04:24:33.532Z,101346.31
2023-03-22T04:27:01.066Z,101345.09
2023-03-22T04:29:32.382Z,101357.84
2023-03-22T04:32:00.997Z,101355.78
2023-03-22T04:34:28.742Z,101351.56
2023-03-22T04:36:56.288Z,101359.56
2023-03-22T04:39:23.840Z,101357.59
2023-03-22T04:41:51.245Z,101370.31
2023-03-22T04:44:20.450Z,101373.97
2023-03-22T04:46:47.956Z,101371.44
2023-03-22T04:49:15.974Z,101367.84
2023-03-22T04:51:43.313Z,101371.88
2023-03-22T04:54:10.727Z,101371.16
2023-03-22T04:56:38.061Z,101368.88
2023-03-22T04:59:05.499Z,101365.13
2023-03-22T05:01:40.814Z,101357.25
2023-03-22T05:04:08.916Z,101359.28
2023-03-22T05:06:36.457Z,101369.56
2023-03-22T05:09:08.187Z,101366.16
2023-03-22T05:11:37.144Z,101376.34
2023-03-22T05:14:04.877Z,101374.28
2023-03-22T05:16:33.528Z,101382.78
2023-03-22T05:19:02.503Z,101386.03
2023-03-22T05:21:36.728Z,101387.88
2023-03-22T05:24:04.393Z,101388.72
2023-03-22T05:26:31.853Z,101395.19
2023-03-22T05:28:59.574Z,101395.56
2023-03-22T05:31:28.833Z,101403.41
2023-03-22T05:34:04.146Z,101408.19
2023-03-22T05:36:36.626Z,101400.69
2023-03-22T05:39:04.680Z,101406.09
2023-03-22T05:41:36.379Z,101405.38
2023-03-22T05:44:05.158Z,101405.31
2023-03-22T05:46:36.581Z,101415.47
2023-03-22T05:49:03.988Z,101411.25
2023-03-22T05:51:32.247Z,101418.72
2023-03-22T05:54:00.488Z,101410.47
2023-03-22T05:56:27.907Z,101411.44
2023-03-22T05:58:58.268Z,101409.72
2023-03-22T06:01:25.891Z,101421.25
2023-03-22T06:03:53.340Z,101413.63
2023-03-22T06:06:20.715Z,101420.66
2023-03-22T06:08:48.711Z,101424.75
2023-03-22T06:11:22.896Z,101415.41
2023-03-22T06:13:50.490Z,101423.66
2023-03-22T06:16:17.976Z,101430.44
2023-03-22T06:18:46.844Z,101426.75
2023-03-22T06:21:14.452Z,101434.81
2023-03-22T06:23:43.701Z,101431.75
2023-03-22T06:26:11.623Z,101436.41
2023-03-22T06:28:39.188Z,101439.28
2023-03-22T06:31:08.296Z,101432.75
2023-03-22T06:33:37.736Z,101446.53
2023-03-22T06:36:05.556Z,101439.41
2023-03-22T06:38:33.081Z,101443.81
2023-03-22T06:41:00.497Z,101449.88
2023-03-22T06:43:27.918Z,101444.91
2023-03-22T06:45:57.388Z,101445.72
2023-03-22T06:48:24.933Z,101445.16
2023-03-22T06:50:52.305Z,101444.09
2023-03-22T06:53:20.905Z,101453.81
2023-03-22T06:55:48.309Z,101454.88
2023-03-22T06:58:15.693Z,101445.78
2023-03-22T07:00:43.365Z,101460.97
2023-03-22T07:03:10.796Z,101462.25
2023-03-22T07:05:39.831Z,101458.69
2023-03-22T07:08:07.482Z,101467.09
2023-03-22T07:10:38.516Z,101465.72
2023-03-22T07:13:07.023Z,101457.38
2023-03-22T07:15:35.177Z,101458.22
2023-03-22T07:18:08.636Z,101465.25
2023-03-22T07:20:41.639Z,101466.00
2023-03-22T07:23:10.945Z,101459.56
2023-03-22T07:25:38.440Z,101466.63
2023-03-22T07:28:07.161Z,101464.25
2023-03-22T07:30:37.593Z,101468.84
2023-03-22T07:33:10.664Z,101466.41
2023-03-22T07:35:38.617Z,101476.69
2023-03-22T07:38:06.671Z,101470.44
2023-03-22T07:40:34.607Z,101473.97
2023-03-22T07:43:02.147Z,101480.53
2023-03-22T07:45:29.664Z,101482.63
2023-03-22T07:48:17.761Z,101483.00
2023-03-22T07:50:45.484Z,101486.44
2023-03-22T07:53:13.372Z,101487.53
2023-03-22T07:55:42.473Z,101479.66
2023-03-22T07:58:10.659Z,101473.91
2023-03-22T08:00:38.630Z,101471.56
2023-03-22T08:03:07.133Z,101478.13
2023-03-22T08:05:35.508Z,101465.69
2023-03-22T08:08:03.154Z,101476.03
2023-03-22T08:10:32.964Z,101470.13
2023-03-22T08:13:01.376Z,101472.38
2023-03-22T08:15:28.779Z,101474.81
2023-03-22T08:18:00.743Z,101469.72
2023-03-22T08:20:28.173Z,101470.84
2023-03-22T08:23:01.281Z,101475.09
2023-03-22T08:25:29.735Z,101476.13
2023-03-22T08:27:57.678Z,101470.38
2023-03-22T08:30:26.132Z,101470.53
2023-03-22T08:32:53.615Z,101471.66
2023-03-22T08:35:22.239Z,101469.13
2023-03-22T08:37:53.785Z,101463.41
2023-03-22T08:40:23.126Z,101458.75
2023-03-22T08:42:51.091Z,101456.53
2023-03-22T08:45:18.715Z,101456.50
2023-03-22T08:47:46.290Z,101449.41
2023-03-22T08:50:13.858Z,101451.28
2023-03-22T08:52:42.799Z,101452.78
2023-03-22T08:55:10.571Z,101450.97
2023-03-22T08:57:50.362Z,101458.53
2023-03-22T09:00:19.212Z,101457.25
2023-03-22T09:02:47.985Z,101455.13
2023-03-22T09:05:15.621Z,101449.97
2023-03-22T09:07:47.040Z,101458.69
2023-03-22T09:10:15.216Z,101450.19
2023-03-22T09:12:43.088Z,101452.78
2023-03-22T09:15:41.893Z,101457.88
2023-03-22T09:18:10.147Z,101449.91
2023-03-22T09:20:38.433Z,101435.66
2023-03-22T09:23:06.664Z,101438.19
2023-03-22T09:25:34.333Z,101446.97
2023-03-22T09:28:02.449Z,101442.56
2023-03-22T09:30:32.378Z,101440.22
2023-03-22T09:33:02.010Z,101439.03
2023-03-22T09:35:30.087Z,101426.88
2023-03-22T09:37:59.965Z,101436.53
2023-03-22T09:40:30.896Z,101432.91
2023-03-22T09:43:03.043Z,101432.16
2023-03-22T09:45:39.822Z,101427.06
2023-03-22T09:48:17.265Z,101431.81
2023-03-22T09:50:48.370Z,101430.13
2023-03-22T09:53:17.967Z,101433.63
2023-03-22T09:56:17.486Z,101434.44
2023-03-22T09:59:06.316Z,101428.91
2023-03-22T10:01:48.351Z,101423.94
2023-03-22T10:04:21.599Z,101434.53
2023-03-22T10:06:59.943Z,101431.84
2023-03-22T10:09:42.380Z,101429.53
2023-03-22T10:12:32.304Z,101424.28
2023-03-22T10:15:26.837Z,101415.66
2023-03-22T10:17:57.570Z,101421.81
2023-03-22T10:20:32.191Z,101427.91
2023-03-22T10:23:03.278Z,101423.84
2023-03-22T10:25:38.435Z,101422.59
2023-03-22T10:28:21.214Z,101425.81
2023-03-22T10:30:54.979Z,101423.47
2023-03-22T10:33:50.260Z,101414.84
2023-03-22T10:36:24.421Z,101421.59
2023-03-22T10:39:00.712Z,101410.56
2023-03-22T10:41:33.716Z,101410.22
2023-03-22T10:44:02.859Z,101402.94
2023-03-22T10:46:40.734Z,101397.41
2023-03-22T10:49:17.597Z,101401.41
2023-03-22T10:51:59.984Z,101394.75
2023-03-22T10:54:28.074Z,101393.97
2023-03-22T10:56:56.536Z,101391.16
2023-03-22T10:59:52.734Z,101387.81
2023-03-22T11:02:24.961Z,101389.34
2023-03-22T11:04:57.070Z,101379.72
2023-03-22T11:07:28.215Z,101382.06
2023-03-22T11:10:24.036Z,101382.16
2023-03-22T11:13:14.546Z,101378.78
2023-03-22T11:15:52.881Z,101368.25
2023-03-22T11:18:20.794Z,101365.91
2023-03-22T11:21:07.448Z,101368.00
2023-03-22T11:23:39.048Z,101369.22
2023-03-22T11:26:10.377Z,101368.72
2023-03-22T11:28:43.116Z,101366.28
2023-03-22T11:31:21.304Z,101369.16
2023-03-22T11:34:01.894Z,101355.00
2023-03-22T11:36:30.410Z,101352.69
2023-03-22T11:39:07.997Z,101353.72
2023-03-22T11:41:37.845Z,101347.81
2023-03-22T11:44:10.857Z,101353.19
2023-03-22T11:46:48.751Z,101348.56
2023-03-22T11:49:18.097Z,101353.06
2023-03-22T11:51:53.186Z,101351.16
2023-03-22T11:54:31.254Z,101355.72
2023-03-22T11:57:03.964Z,101345.50
2023-03-22T11:59:59.798Z,101352.00
2023-03-22T12:02:32.609Z,101350.25
2023-03-22T12:05:12.749Z,101352.84
2023-03-22T12:07:41.774Z,101352.56
2023-03-22T12:10:25.170Z,101348.41
2023-03-22T12:12:59.997Z,101348.81
2023-03-22T12:15:40.498Z,101344.25
2023-03-22T12:18:48.944Z,101352.47
2023-03-22T12:21:16.814Z,101343.28
2023-03-22T12:23:44.849Z,101348.63
2023-03-22T12:26:12.118Z,101354.44
2023-03-22T12:29:06.171Z,101350.47
2023-03-22T12:31:39.469Z,101342.16
2023-03-22T12:34:14.806Z,101345.34
2023-03-22T12:36:50.068Z,101336.78
2023-03-22T12:39:30.492Z,101346.34
2023-03-22T12:42:04.001Z,101342.50
2023-03-22T12:44:40.431Z,101350.81
2023-03-22T12:47:19.134Z,101350.16
2023-03-22T12:49:54.175Z,101347.28
2023-03-22T12:52:45.454Z,101352.38
2023-03-22T12:55:34.966Z,101342.41
2023-03-22T12:58:06.639Z,101346.56
2023-03-22T13:00:40.807Z,101346.38
2023-03-22T13:03:25.198Z,101337.75
2023-03-22T13:06:05.142Z,101348.34
2023-03-22T13:09:02.537Z,101343.97
2023-03-22T13:11:32.117Z,101345.00
2023-03-22T13:14:00.274Z,101334.72
2023-03-22T13:17:06.831Z,101334.13
2023-03-22T13:19:38.610Z,101330.94
2023-03-22T13:22:22.238Z,101323.44
2023-03-22T13:25:06.281Z,101320.59
2023-03-22T13:27:37.978Z,101317.97
2023-03-22T13:30:21.823Z,101317.81
2023-03-22T13:33:09.951Z,101325.00
2023-03-22T13:35:54.393Z,101324.59
2023-03-22T13:38:22.432Z,101322.03
2023-03-22T13:41:44.913Z,101330.53
2023-03-22T13:44:27.022Z,101323.78
2023-03-22T13:47:02.462Z,101319.41
2023-03-22T13:49:53.410Z,101318.09
2023-03-22T13:52:27.433Z,101316.09
2023-03-22T13:54:57.677Z,101323.13
2023-03-22T13:57:49.343Z,101318.56
2023-03-22T14:00:36.416Z,101312.72
2023-03-22T14:03:23.739Z,101322.09
2023-03-22T14:06:10.939Z,101318.59
2023-03-22T14:08:45.987Z,101304.84
2023-03-22T14:11:20.802Z,101308.09
2023-03-22T14:13:53.775Z,101310.50
2023-03-22T14:16:46.034Z,101304.34
2023-03-22T14:19:21.954Z,101315.19
